KAVX

Catalina Airport

Avalon, California, USA
METAR KAVX 171651Z AUTO 16005KT 10SM CLR 16/12 A3007 RMK AO2 SLP171 T01560117
Observed Flight Rules
Nov-17 @ 16:51 UTC (5 hours ago) Visual Flight Rules
Wind Visibility Clouds
160° at 5 knots 10 miles
  • Clear skies
Temperatures Readings
Current 16°C / 61°F
Dewpoint 12°C / 54°F
Humidity 77%
Altimeter 30.07" Hg
Pressure 1017.1 hPa
Elevation 482
METAR KAVX 171651Z AUTO 16005KT 10SM CLR 16/12 A3007 RMK AO2 SLP171 T01560117
Observed Flight Rules
Nov-17 @ 16:51 UTC
(5 hours ago)
VFR
Wind Visibility
160° at 5 knots 10 miles
Clouds
  • Clear skies
Temperature Dewpoint
16°C / 61°F 12°C / 54°F
Humidity Altimeter Pressure
77% 30.07" Hg 1017.1 hPa